Ana Sayfa
METAR-TAF:

METAR-TAF

Havaalanları :

Laconia Municipal Airport

Laconia, New Hampshire, Amerika Birleşik Devletleri

Enlem: 43-34N, Boylam: 071-25W, yükseklik: 166 m

Güncel hava durumu gözlemi

Rapor saat 14:56 UTC de 1 saat ve 11 dakika önce yapıldı.
Rüzgar değişken yönden 3 kt
Sıcaklık -4°C
Nem 68%
Basınç 1031 hPa
Görüş mesafesi: 16.1 km
9000 ft yükseklikte çok bulutlu

METAR: KLCI 141456Z AUTO VRB03KT 10SM OVC090 M04/M09 A3046 RMK AO2 SLP325 T10441094 50004 FZRANO

Saat: 11:07 (16:07 UTC)


TAF: eksik

4.000'den fazla havaalanı için hava durumu gözlemleri ve tahminleri (METAR ve TAF raporları).

Kullanılabilir istasyonlar harita üzerinde sarı ve kırmızı noktalarla gösterilir.

İstasyonun adını görmek için fareyi noktanın üzerinde gezdirin.

Sonrasında hava gözlem ve tahminlerini görmek için tıklayın.

Haritayı değiştirmek için: yaklaştırmak için siyah artı işaretli yeşil düğmeye ve uzaklaştırmak için de eksi işaretli düğmeye hızla tıklayın; bitişik haritalar için yeşil okları kullanın.


METAR-TAF: